ENDH weather

Drammen Heliport, Hospital
Drammen, Buskerud, Norway

Public forecast

Using degrees Celsius for public forecast. Weather courtesy of forecast.io.

METAR (pilot weather report)

Closest report is Oslo, Fornebu Airport, 15.5 nm (28.7 km) NE. Retrieved 2019/05/22 14:20 UTC (0 seconds ago):

ENFB 221420Z AUTO 10004KT 0350NDV -RA FG NCD 10/10 Q1007 W///S4

TAF (pilot weather forecast)

Closest forecast is Moss Airport, Rygge, 28.5 nm (52.7 km) SE. Retrieved 2019/05/22 12:00 UTC (2 hours ago):

TAF TAF ENRY 221100Z 2212/2312 18010KT 9999 FEW020TCU BKN040 PROB30 TEMPO 2214/2219 4000 TSRA BKN008 FEW025CB